Latest Weather Observations for Cape Wessel

IDD60801

Issued at 7:31 am CST Wednesday 10 February 2016 (issued every 30 minutes, with the page automatically refreshed every 10 minutes)

About weather observations | Map of weather stations | Latest weather observations for NT | Other Formats
Station Details ID: 200786 Name: CAPE WESSEL Lat: -11.00 Lon: 136.76 Height: 18.0 m
Data from the previous 72 hours. | See also: Recent months at Cape Wessel
Date/Time
CST
Temp
°C
App
Temp
°C
Dew
Point
Rel
Hum
%
Delta-T
°C
Wind Press
QNH
hPa
Press
MSL
hPa
Rain
since 9 am
mm
Dir
 
Spd
km/h
Gust
km/h
Spd
kts
Gust
kts
10/07:30am 29.6 34.0 28.7 95 0.7 WNW 24 30 13 16 1007.2 1007.1 0.6
10/07:00am 29.0 32.4 28.3 96 0.5 WNW 28 33 15 18 1006.9 1006.8 0.6
10/06:30am 28.5 32.4 28.5 100 0.0 WNW 26 32 14 17 1006.5 1006.4 0.6
10/06:00am 27.7 32.2 27.7 100 0.0 NW 20 24 11 13 1006.2 1006.1 0.6
10/05:30am 26.7 29.1 25.8 95 0.6 NW 24 33 13 18 1005.9 1005.8 0.6
10/05:00am 29.3 32.1 27.5 90 1.3 WNW 28 37 15 20 1005.5 1005.4 0.0
10/04:30am 29.2 31.7 27.0 88 1.6 WNW 28 35 15 19 1005.3 1005.2 0.0
10/04:00am 29.2 32.7 27.4 90 1.3 WNW 24 32 13 17 1005.3 1005.2 0.0
10/03:30am 29.3 32.0 27.3 89 1.4 WNW 28 33 15 18 1005.5 1005.4 0.0
10/03:00am 29.2 31.7 27.0 88 1.6 WNW 28 33 15 18 1005.6 1005.5 0.0
10/02:30am 29.5 31.9 27.5 89 1.4 WNW 30 37 16 20 1005.7 1005.6 0.0
10/02:00am 29.4 32.4 27.8 91 1.2 WNW 28 35 15 19 1006.1 1006.0 0.0
10/01:30am 29.2 32.5 27.2 89 1.4 WNW 24 30 13 16 1006.4 1006.3 0.0
10/01:00am 29.3 32.7 27.3 89 1.4 WNW 24 30 13 16 1007.0 1006.9 0.0
10/12:30am 29.1 33.3 27.1 89 1.4 WNW 19 24 10 13 1007.4 1007.3 0.0
10/12:00am 29.0 32.9 26.6 87 1.7 NW 19 24 10 13 1007.7 1007.6 0.0
 
Date/Time
CST
Temp
°C
App
Temp
°C
Dew
Point
Rel
Hum
%
Delta-T
°C
Wind Press
QNH
hPa
Press
MSL
hPa
Rain
since 9 am
mm
Dir
 
Spd
km/h
Gust
km/h
Spd
kts
Gust
kts
09/11:30pm 29.1 32.9 26.7 87 1.7 WNW 20 26 11 14 1008.1 1008.0 0.0
09/11:00pm 29.2 32.9 26.6 86 1.9 WNW 20 28 11 15 1008.7 1008.6 0.0
09/10:30pm 29.2 32.9 26.6 86 1.9 WNW 20 26 11 14 1008.9 1008.8 0.0
09/10:00pm 29.1 32.6 26.3 85 2.0 WNW 20 24 11 13 1008.8 1008.7 0.0
09/09:30pm 29.1 32.8 26.3 85 2.0 WNW 19 24 10 13 1008.2 1008.1 0.0
09/09:00pm 29.2 32.5 26.0 83 2.3 WNW 20 24 11 13 1007.9 1007.8 0.0
09/08:30pm 29.4 32.7 26.0 82 2.4 WNW 20 26 11 14 1007.7 1007.6 0.0
09/08:00pm 29.4 32.1 25.6 80 2.7 NW 22 28 12 15 1007.1 1007.0 0.0
09/07:30pm 29.4 31.8 25.2 78 3.0 NW 22 28 12 15 1006.7 1006.6 0.0
09/07:00pm 29.6 32.2 24.9 76 3.3 WNW 20 26 11 14 1006.6 1006.5 0.0
09/06:30pm 30.3 33.2 25.4 75 3.5 WNW 20 26 11 14 1006.3 1006.2 0.0
09/06:00pm 30.9 33.5 25.5 73 3.8 WNW 22 28 12 15 1005.9 1005.8 0.0
09/05:30pm 31.6 34.3 25.7 71 4.2 WNW 22 26 12 14 1006.0 1005.9 0.0
09/05:00pm 32.1 34.4 25.7 69 4.6 WNW 24 28 13 15 1006.1 1006.0 0.0
09/04:30pm 32.7 35.8 26.3 69 4.6 WNW 22 30 12 16 1006.1 1006.0 0.0
09/04:00pm 33.4 36.9 26.9 69 4.7 WNW 22 28 12 15 1005.9 1005.8 0.0
09/03:30pm 33.3 36.8 26.8 68 4.7 WNW 22 28 12 15 1006.0 1005.9 0.0
09/03:00pm 34.2 38.4 27.4 67 5.0 WNW 20 28 11 15 1006.2 1006.1 0.0
09/02:30pm 33.4 36.8 26.7 68 4.8 WNW 22 28 12 15 1006.6 1006.5 0.0
09/02:00pm 34.0 37.8 26.7 65 5.3 WNW 20 26 11 14 1006.8 1006.7 0.0
09/01:30pm 34.1 38.1 27.1 67 5.1 WNW 20 26 11 14 1007.2 1007.1 0.0
09/01:00pm 33.7 37.5 26.7 67 5.1 WNW 20 26 11 14 1007.5 1007.4 0.0
09/12:30pm 33.3 36.6 26.6 68 4.8 WNW 22 28 12 15 1008.0 1007.9 0.0
09/12:00pm 33.2 36.6 26.7 68 4.7 WNW 22 26 12 14 1008.4 1008.3 0.0
09/11:30am 33.2 37.2 27.0 70 4.5 WNW 20 26 11 14 1008.8 1008.7 0.0
09/11:00am 33.1 37.1 27.1 71 4.3 WNW 20 24 11 13 1009.1 1009.0 0.0
09/10:30am 32.9 37.3 27.6 73 3.9 WNW 20 26 11 14 1009.2 1009.1 0.0
09/10:00am 32.8 37.5 28.0 76 3.5 WNW 20 24 11 13 1009.6 1009.5 0.0
09/09:30am 32.1 36.3 27.8 78 3.1 NW 22 26 12 14 1009.7 1009.6 0.0
09/09:00am 31.7 36.2 27.8 80 2.8 WNW 20 26 11 14 1009.5 1009.4 0.0
09/08:30am 30.2 34.2 27.0 83 2.3 WNW 20 26 11 14 1009.2 1009.1 0.0
09/08:00am 30.3 34.2 27.5 85 2.0 WNW 22 28 12 15 1008.9 1008.8 0.0
09/07:30am 29.3 33.2 27.5 90 1.3 WNW 22 28 12 15 1008.6 1008.5 0.0
09/07:00am 29.1 33.3 27.9 93 0.9 WNW 22 26 12 14 1008.1 1008.0 0.0
09/06:30am 28.7 33.0 27.5 93 0.9 WNW 20 26 11 14 1007.6 1007.5 0.0
09/06:00am 28.7 32.5 27.3 92 1.0 WNW 22 26 12 14 1007.2 1007.1 0.0
09/05:30am 28.6 32.2 27.0 91 1.2 WNW 22 26 12 14 1006.9 1006.8 0.0
09/05:00am 28.5 32.4 26.9 91 1.1 WNW 20 24 11 13 1006.7 1006.6 0.0
09/04:30am 28.8 32.9 27.2 91 1.2 WNW 20 24 11 13 1006.8 1006.7 0.0
09/04:00am 28.7 32.7 27.1 91 1.2 WNW 20 24 11 13 1006.9 1006.8 0.0
09/03:30am 28.6 32.8 27.0 91 1.2 WNW 19 20 10 11 1006.9 1006.8 0.0
09/03:00am 28.6 32.8 27.0 91 1.2 WNW 19 22 10 12 1006.9 1006.8 0.0
09/02:30am 28.6 32.8 27.0 91 1.2 NW 19 20 10 11 1007.2 1007.1 0.0
09/02:00am 28.7 32.8 26.9 90 1.3 NW 19 22 10 12 1007.3 1007.2 0.0
09/01:30am 28.8 32.8 26.8 89 1.4 NW 19 22 10 12 1007.5 1007.4 0.0
09/01:00am 28.9 33.6 26.7 88 1.6 WNW 15 20 8 11 1007.8 1007.7 0.0
09/12:30am 28.7 33.1 26.3 87 1.7 WNW 15 19 8 10 1008.2 1008.1 0.0
09/12:00am 28.7 33.3 25.9 85 2.0 WNW 13 15 7 8 1008.7 1008.6 0.0
 
Date/Time
CST
Temp
°C
App
Temp
°C
Dew
Point
Rel
Hum
%
Delta-T
°C
Wind Press
QNH
hPa
Press
MSL
hPa
Rain
since 9 am
mm
Dir
 
Spd
km/h
Gust
km/h
Spd
kts
Gust
kts
08/11:30pm 28.7 33.4 26.1 86 1.8 WNW 13 17 7 9 1009.1 1009.0 0.0
08/11:00pm 28.9 33.6 26.1 85 2.0 WNW 13 15 7 8 1009.2 1009.1 0.0
08/10:30pm 29.1 33.8 26.1 84 2.1 WNW 13 15 7 8 1009.2 1009.1 0.0
08/10:00pm 29.1 34.1 26.5 86 1.9 W 13 15 7 8 1008.9 1008.8 0.0
08/09:30pm 29.1 33.4 26.1 84 2.1 WNW 15 19 8 10 1008.5 1008.4 0.0
08/09:00pm 29.1 33.0 26.1 84 2.1 WNW 17 19 9 10 1008.3 1008.2 0.0
08/08:30pm 29.2 32.9 25.8 82 2.4 WNW 17 20 9 11 1007.9 1007.8 0.0
08/08:00pm 29.2 32.8 25.6 81 2.5 WNW 17 19 9 10 1007.6 1007.5 0.0
08/07:30pm 29.2 33.1 25.4 80 2.7 WNW 15 19 8 10 1007.0 1006.9 0.0
08/07:00pm 29.2 33.0 24.7 77 3.1 WNW 13 17 7 9 1006.8 1006.7 0.0
08/06:30pm 29.6 33.0 24.7 75 3.4 WNW 15 17 8 9 1006.6 1006.5 0.0
08/06:00pm 30.0 33.4 25.3 76 3.3 WNW 17 20 9 11 1006.5 1006.4 0.0
08/05:30pm 30.3 33.6 25.1 73 3.7 WNW 17 20 9 11 1006.5 1006.4 0.0
08/05:00pm 30.7 34.6 25.5 74 3.7 WNW 15 19 8 10 1006.4 1006.3 0.0
08/04:30pm 31.0 34.5 25.4 72 4.0 WNW 17 20 9 11 1006.4 1006.3 0.0
08/04:00pm 31.6 35.7 25.7 71 4.2 WNW 15 19 8 10 1006.4 1006.3 0.0
08/03:30pm 31.9 35.8 26.0 71 4.2 WNW 17 20 9 11 1006.7 1006.6 0.0
08/03:00pm 31.7 35.2 25.5 69 4.4 NW 17 20 9 11 1006.8 1006.7 0.0
08/02:30pm 32.9 36.9 26.2 68 4.8 NW 17 20 9 11 1007.1 1007.0 0.0
08/02:00pm 33.4 37.7 26.7 68 4.8 NW 17 20 9 11 1007.4 1007.3 0.0
08/01:30pm 33.3 37.9 27.1 70 4.5 NW 17 20 9 11 1007.9 1007.8 0.0
08/01:00pm 33.5 38.4 27.5 71 4.4 NW 17 20 9 11 1008.4 1008.3 0.0
08/12:30pm 32.3 36.6 26.6 72 4.1 NW 17 22 9 12 1009.1 1009.0 0.0
08/12:00pm 32.5 36.5 26.8 72 4.1 NW 19 24 10 13 1009.3 1009.2 0.0
08/11:30am 32.4 36.2 26.7 72 4.1 NW 20 26 11 14 1009.5 1009.4 0.0
08/11:00am 32.5 37.4 27.5 75 3.6 NW 17 20 9 11 1009.5 1009.4 0.0
08/10:30am 31.6 35.6 26.8 75 3.5 NW 19 22 10 12 1009.7 1009.6 0.0
08/10:00am 31.7 36.2 27.8 80 2.8 NW 20 24 11 13 1009.6 1009.5 0.0
08/09:30am 30.4 33.9 26.8 81 2.6 NW 22 26 12 14 1009.5 1009.4 0.0
08/09:00am 30.6 34.2 27.0 81 2.6 NW 22 26 12 14 1009.5 1009.4 0.0
08/08:30am 30.4 34.0 27.0 82 2.5 NW 22 28 12 15 1009.2 1009.1 0.0
08/08:00am 30.0 34.0 27.6 87 1.7 NW 22 30 12 16 1008.9 1008.8 0.0
08/07:30am 29.2 33.2 27.0 88 1.6 NW 20 24 11 13 1008.8 1008.7 0.0
08/07:00am 28.9 33.6 27.3 91 1.2 NW 17 20 9 11 1008.6 1008.5 0.0
08/06:30am 28.7 33.7 27.1 91 1.2 NW 15 20 8 11 1008.5 1008.4 0.0
08/06:00am 28.5 32.7 26.5 89 1.4 WNW 17 22 9 12 1008.4 1008.3 0.0
08/05:30am 28.7 33.1 27.3 92 1.0 WNW 19 22 10 12 1008.2 1008.1 0.0
08/05:00am 28.7 33.3 27.1 91 1.2 WNW 17 20 9 11 1008.1 1008.0 0.0
08/04:30am 28.5 33.5 27.1 92 1.0 WNW 15 17 8 9 1007.9 1007.8 0.0
08/04:00am 28.4 33.3 27.0 92 1.0 WNW 15 17 8 9 1007.9 1007.8 0.0
08/03:30am 28.2 33.4 26.8 92 1.0 WNW 13 17 7 9 1007.9 1007.8 0.0
08/03:00am 28.3 33.4 26.7 91 1.1 NW 13 17 7 9 1008.1 1008.0 0.0
08/02:30am 28.3 33.3 26.5 90 1.3 NW 13 17 7 9 1008.2 1008.1 0.0
08/02:00am 28.3 33.5 26.3 89 1.4 NW 11 15 6 8 1008.6 1008.5 0.0
08/01:30am 28.4 33.3 26.4 89 1.4 NW 13 15 7 8 1008.8 1008.7 0.0
08/01:00am 28.5 32.7 25.9 86 1.8 NW 15 17 8 9 1009.0 1008.9 0.0
08/12:30am 28.7 33.0 26.1 86 1.8 NW 15 19 8 10 1009.2 1009.1 0.0
08/12:00am 28.6 32.3 25.8 85 2.0 NW 17 19 9 10 1009.5 1009.4 0.0
 
Date/Time
CST
Temp
°C
App
Temp
°C
Dew
Point
Rel
Hum
%
Delta-T
°C
Wind Press
QNH
hPa
Press
MSL
hPa
Rain
since 9 am
mm
Dir
 
Spd
km/h
Gust
km/h
Spd
kts
Gust
kts
07/11:30pm 28.6 33.2 26.0 86 1.8 NW 13 17 7 9 1009.7 1009.6 0.0
07/11:00pm 28.5 32.8 25.5 84 2.1 NW 13 15 7 8 1010.0 1009.9 0.0
07/10:30pm 28.7 32.8 25.7 84 2.1 NW 15 17 8 9 1009.9 1009.8 0.0
07/10:00pm 28.7 32.6 25.5 83 2.3 NW 15 19 8 10 1009.6 1009.5 0.0
07/09:30pm 28.9 32.4 25.5 82 2.4 NW 17 19 9 10 1009.6 1009.5 0.0
07/09:00pm 28.9 32.2 25.1 80 2.7 NW 17 20 9 11 1009.1 1009.0 0.0
07/08:30pm 28.9 32.1 24.9 79 2.8 NW 17 20 9 11 1008.5 1008.4 0.0
07/08:00pm 28.9 31.8 24.5 77 3.1 WNW 17 19 9 10 1008.2 1008.1 0.0
07/07:30pm 29.3 32.5 24.4 75 3.4 WNW 15 19 8 10 1007.8 1007.7 0.0
07/07:00pm 29.5 32.0 24.4 74 3.6 WNW 19 20 10 11 1007.5 1007.4 0.0
07/06:30pm 30.3 33.0 24.7 72 3.9 WNW 19 22 10 12 1007.0 1006.9 0.0
07/06:00pm 31.1 34.3 25.0 70 4.3 WNW 17 20 9 11 1006.6 1006.5 0.0
07/05:30pm 31.5 34.2 25.1 69 4.5 WNW 20 24 11 13 1006.2 1006.1 0.0
07/05:00pm 32.1 35.0 25.4 67 4.8 WNW 20 24 11 13 1006.0 1005.9 0.0
07/04:30pm 32.6 35.7 25.4 66 5.1 WNW 19 24 10 13 1006.1 1006.0 0.0
07/04:00pm 32.9 36.0 25.7 66 5.1 WNW 20 24 11 13 1006.1 1006.0 0.0
07/03:30pm 33.2 36.6 26.2 66 5.0 WNW 20 24 11 13 1006.1 1006.0 0.0
07/03:00pm 33.4 36.8 26.2 66 5.2 WNW 20 26 11 14 1006.4 1006.3 0.0
07/02:30pm 32.9 35.6 25.7 66 5.1 WNW 22 28 12 15 1006.6 1006.5 0.0
07/02:00pm 33.4 36.4 26.2 66 5.2 WNW 22 26 12 14 1006.9 1006.8 0.0
07/01:30pm 33.6 37.1 26.9 68 4.9 WNW 22 26 12 14 1007.1 1007.0 0.0
07/01:00pm 33.7 37.1 26.7 67 5.1 WNW 22 26 12 14 1007.5 1007.4 0.0
07/12:30pm 33.5 37.1 27.0 69 4.7 WNW 22 28 12 15 1007.8 1007.7 0.0
07/12:00pm 33.2 36.6 26.7 68 4.7 WNW 22 28 12 15 1008.1 1008.0 0.0
07/11:30am 33.3 37.3 27.1 70 4.5 WNW 20 26 11 14 1008.4 1008.3 0.0
07/11:00am 32.9 37.1 27.4 73 4.0 NW 20 26 11 14 1008.6 1008.5 0.0
07/10:30am 32.8 36.7 27.5 73 3.9 NW 22 26 12 14 1008.7 1008.6 0.0
07/10:00am 32.7 37.7 27.7 75 3.6 WNW 17 20 9 11 1008.7 1008.6 0.0
07/09:30am 31.9 35.8 26.9 75 3.6 NW 20 24 11 13 1008.7 1008.6 0.0
07/09:00am 31.8 36.8 27.7 79 3.0 NW 17 20 9 11 1008.6 1008.5 0.0
07/08:30am 31.5 37.5 28.0 82 2.6 NW 13 17 7 9 1008.5 1008.4 0.0
07/08:00am 30.0 34.5 27.0 84 2.2 NW 17 20 9 11 1008.6 1008.5 0.0

Other Formats:

Comma delimited format used in spreadsheet applications
http://www.bom.gov.au/fwo/IDD60801/IDD60801.94147.axf

JavaScript Object Notation format (JSON) in row-major order
http://www.bom.gov.au/fwo/IDD60801/IDD60801.94147.json